Cape Express — HO5337 — position and weather

sailwx.info

Track history (hours):
 
Tides and Currents Weather Stations Pressure Air Temp Water Temp Dewpoint Dewpoint Depression Visibility Wind Speed Wind Dir Waves Ship Positions

Cape Express

Last reported at 2014-Oct-19 06:33 UTC. Time now 2014-Oct-20 22:58 UTC.
Position N 26°04' W 079°31'.

Length 29 m; draft 2.2 m.

Type: Cargo ship. MMSI: 370269000.

Date/timePositionNaut miles runAvg speedWind from/ knotsBaromVisibWave heightAir tempDewpointWater temp
2014-Oct-19 06:33N 26°04' W 079°31'10 9.6
2014-Oct-19 05:33N 26°04' W 079°41'9 9.0
2014-Oct-19 04:33N 26°05' W 079°51'9 9.3
2014-Oct-19 03:33N 26°05' W 080°02'5 5.0
2014-Oct-19 02:33N 26°04' W 080°07'1 0.9
2014-Oct-19 01:33N 26°04' W 080°08'0 0.0
2014-Oct-19 00:33N 26°04' W 080°08'0 0.0
2014-Oct-18 23:33N 26°04' W 080°08'0 0.0
2014-Oct-18 22:33N 26°04' W 080°08'0 0.0
2014-Oct-18 21:33N 26°04' W 080°08'0 0.0
2014-Oct-18 20:33N 26°04' W 080°08'2 1.7
2014-Oct-18 19:33N 26°05' W 080°07'9 9.3
2014-Oct-18 18:33N 26°01' W 079°57'1110.9
2014-Oct-18 17:33N 25°56' W 079°47'1211.0
2014-Oct-18 16:29N 25°51' W 079°35'1 0.0
2014-Oct-17 22:33N 25°51' W 079°34'9 9.0
2014-Oct-17 21:33N 25°54' W 079°43'8 8.4
2014-Oct-17 20:33N 25°57' W 079°52'9 8.6
2014-Oct-17 19:33N 26°02' W 079°60'7 6.5
2014-Oct-17 18:33N 26°04' W 080°07'1 1.1
2014-Oct-17 17:33N 26°04' W 080°08'0 0.0
2014-Oct-17 16:33N 26°04' W 080°08'0 0.0
2014-Oct-17 15:33N 26°04' W 080°08'0 0.0
2014-Oct-17 14:33N 26°04' W 080°08'0 0.0
2014-Oct-17 13:33N 26°04' W 080°08'0 0.1
2014-Oct-17 12:33N 26°04' W 080°08'5 5.5
2014-Oct-17 11:33N 26°05' W 080°02'9 9.0
2014-Oct-17 10:33N 26°02' W 079°52'9 8.8
2014-Oct-17 09:33N 25°59' W 079°43'9 8.7
2014-Oct-17 08:32N 25°57' W 079°33'4 0.1
2014-Oct-15 06:33N 25°56' W 079°29'9 9.0
2014-Oct-15 05:33N 25°58' W 079°39'8 8.2
2014-Oct-15 04:33N 26°01' W 079°47'8 7.9
2014-Oct-15 03:33N 26°03' W 079°56'8 8.3
2014-Oct-15 02:33N 26°05' W 080°05'3 3.2
2014-Oct-15 01:33N 26°04' W 080°08'0 0.0
2014-Oct-15 00:33N 26°04' W 080°08'0 0.0
2014-Oct-14 23:33N 26°04' W 080°08'0 0.0
2014-Oct-14 22:33N 26°04' W 080°08'0 0.0
2014-Oct-14 21:33N 26°04' W 080°08'4 4.1
2014-Oct-14 20:33N 26°05' W 080°04'9 9.1
2014-Oct-14 19:33N 26°05' W 079°54'9 9.4
2014-Oct-14 18:33N 26°05' W 079°43'10 9.9
2014-Oct-14 17:33N 26°04' W 079°32'11 0.9
2014-Oct-14 04:32N 26°15' W 079°36'1010.1
2014-Oct-14 03:33N 26°12' W 079°46'1010.0
2014-Oct-14 02:33N 26°08' W 079°57'10 9.5
2014-Oct-14 01:33N 26°06' W 080°07'2 2.0
2014-Oct-14 00:33N 26°04' W 080°08'0 0.0
2014-Oct-13 23:33N 26°04' W 080°08'0 0.0
2014-Oct-13 22:33N 26°04' W 080°08'0 0.0
2014-Oct-13 21:33N 26°04' W 080°08'0 0.0
2014-Oct-13 20:33N 26°04' W 080°08'0 0.0
2014-Oct-13 19:33N 26°04' W 080°08'1 0.8
2014-Oct-13 18:33N 26°04' W 080°07'0 0.0
2014-Oct-13 17:33N 26°04' W 080°07'1 0.6
2014-Oct-13 16:33N 26°05' W 080°07'1 0.7
2014-Oct-13 15:33N 26°05' W 080°07'0 0.0
2014-Oct-13 14:33N 26°05' W 080°07'4 4.4
2014-Oct-13 13:33N 26°05' W 080°02'0 0.3
2014-Oct-13 12:33N 26°05' W 080°02'10 9.7
2014-Oct-13 11:33N 26°02' W 079°52'1010.2
2014-Oct-13 10:33N 25°59' W 079°41'  
Track history (hours):
 
Tides and Currents Weather Stations Pressure Air Temp Water Temp Dewpoint Dewpoint Depression Visibility Wind Speed Wind Dir Waves Ship Positions

Cape Express

Last reported at 2014-Oct-19 06:33 UTC. Time now 2014-Oct-20 22:58 UTC.
Position N 26°04' W 079°31'.

Length 29 m; draft 2.2 m.

Type: Cargo ship. MMSI: 370269000.

Date/timePositionNaut miles runAvg speedWind from/ knotsBaromVisibWave heightAir tempDewpointWater temp
2014-Oct-19 06:33N 26°04' W 079°31'10 9.6
2014-Oct-19 05:33N 26°04' W 079°41'9 9.0
2014-Oct-19 04:33N 26°05' W 079°51'9 9.3
2014-Oct-19 03:33N 26°05' W 080°02'5 5.0
2014-Oct-19 02:33N 26°04' W 080°07'1 0.9
2014-Oct-19 01:33N 26°04' W 080°08'0 0.0
2014-Oct-19 00:33N 26°04' W 080°08'0 0.0
2014-Oct-18 23:33N 26°04' W 080°08'0 0.0
2014-Oct-18 22:33N 26°04' W 080°08'0 0.0
2014-Oct-18 21:33N 26°04' W 080°08'0 0.0
2014-Oct-18 20:33N 26°04' W 080°08'2 1.7
2014-Oct-18 19:33N 26°05' W 080°07'9 9.3
2014-Oct-18 18:33N 26°01' W 079°57'1110.9
2014-Oct-18 17:33N 25°56' W 079°47'1211.0
2014-Oct-18 16:29N 25°51' W 079°35'1 0.0
2014-Oct-17 22:33N 25°51' W 079°34'9 9.0
2014-Oct-17 21:33N 25°54' W 079°43'8 8.4
2014-Oct-17 20:33N 25°57' W 079°52'9 8.6
2014-Oct-17 19:33N 26°02' W 079°60'7 6.5
2014-Oct-17 18:33N 26°04' W 080°07'1 1.1
2014-Oct-17 17:33N 26°04' W 080°08'0 0.0
2014-Oct-17 16:33N 26°04' W 080°08'0 0.0
2014-Oct-17 15:33N 26°04' W 080°08'0 0.0
2014-Oct-17 14:33N 26°04' W 080°08'0 0.0
2014-Oct-17 13:33N 26°04' W 080°08'0 0.1
2014-Oct-17 12:33N 26°04' W 080°08'5 5.5
2014-Oct-17 11:33N 26°05' W 080°02'9 9.0
2014-Oct-17 10:33N 26°02' W 079°52'9 8.8
2014-Oct-17 09:33N 25°59' W 079°43'9 8.7
2014-Oct-17 08:32N 25°57' W 079°33'4 0.1
2014-Oct-15 06:33N 25°56' W 079°29'9 9.0
2014-Oct-15 05:33N 25°58' W 079°39'8 8.2
2014-Oct-15 04:33N 26°01' W 079°47'8 7.9
2014-Oct-15 03:33N 26°03' W 079°56'8 8.3
2014-Oct-15 02:33N 26°05' W 080°05'3 3.2
2014-Oct-15 01:33N 26°04' W 080°08'0 0.0
2014-Oct-15 00:33N 26°04' W 080°08'0 0.0
2014-Oct-14 23:33N 26°04' W 080°08'0 0.0
2014-Oct-14 22:33N 26°04' W 080°08'0 0.0
2014-Oct-14 21:33N 26°04' W 080°08'4 4.1
2014-Oct-14 20:33N 26°05' W 080°04'9 9.1
2014-Oct-14 19:33N 26°05' W 079°54'9 9.4
2014-Oct-14 18:33N 26°05' W 079°43'10 9.9
2014-Oct-14 17:33N 26°04' W 079°32'11 0.9
2014-Oct-14 04:32N 26°15' W 079°36'1010.1
2014-Oct-14 03:33N 26°12' W 079°46'1010.0
2014-Oct-14 02:33N 26°08' W 079°57'10 9.5
2014-Oct-14 01:33N 26°06' W 080°07'2 2.0
2014-Oct-14 00:33N 26°04' W 080°08'0 0.0
2014-Oct-13 23:33N 26°04' W 080°08'0 0.0
2014-Oct-13 22:33N 26°04' W 080°08'0 0.0
2014-Oct-13 21:33N 26°04' W 080°08'0 0.0
2014-Oct-13 20:33N 26°04' W 080°08'0 0.0
2014-Oct-13 19:33N 26°04' W 080°08'1 0.8
2014-Oct-13 18:33N 26°04' W 080°07'0 0.0
2014-Oct-13 17:33N 26°04' W 080°07'1 0.6
2014-Oct-13 16:33N 26°05' W 080°07'1 0.7
2014-Oct-13 15:33N 26°05' W 080°07'0 0.0
2014-Oct-13 14:33N 26°05' W 080°07'4 4.4
2014-Oct-13 13:33N 26°05' W 080°02'0 0.3
2014-Oct-13 12:33N 26°05' W 080°02'10 9.7
2014-Oct-13 11:33N 26°02' W 079°52'1010.2
2014-Oct-13 10:33N 25°59' W 079°41'  

Dump ship's entire track history